createdAt,value
2022-11-13T00:02:27.917Z,101781.50
2022-11-13T00:05:14.154Z,101779.63
2022-11-13T00:07:59.890Z,101780.66
2022-11-13T00:10:45.806Z,101776.16
2022-11-13T00:13:32.038Z,101780.59
2022-11-13T00:16:20.502Z,101776.19
2022-11-13T00:19:06.708Z,101785.78
2022-11-13T00:21:52.877Z,101773.25
2022-11-13T00:24:38.902Z,101770.38
2022-11-13T00:27:27.472Z,101774.59
2022-11-13T00:30:19.031Z,101767.06
2022-11-13T00:33:05.808Z,101781.47
2022-11-13T00:35:51.790Z,101783.00
2022-11-13T00:38:37.684Z,101775.72
2022-11-13T00:41:24.212Z,101789.00
2022-11-13T00:44:10.245Z,101788.00
2022-11-13T00:46:55.955Z,101795.53
2022-11-13T00:49:41.780Z,101782.97
2022-11-13T00:52:27.846Z,101787.72
2022-11-13T00:55:16.119Z,101776.63
2022-11-13T00:58:02.716Z,101767.19
2022-11-13T01:00:49.210Z,101763.31
2022-11-13T01:03:36.975Z,101766.84
2022-11-13T01:06:25.580Z,101764.22
2022-11-13T01:09:11.865Z,101764.78
2022-11-13T01:11:57.903Z,101759.28
2022-11-13T01:14:44.079Z,101753.03
2022-11-13T01:17:31.006Z,101735.41
2022-11-13T01:20:17.692Z,101727.16
2022-11-13T01:23:03.928Z,101722.13
2022-11-13T01:25:50.348Z,101717.66
2022-11-13T01:28:36.994Z,101719.13
2022-11-13T01:31:26.902Z,101712.00
2022-11-13T01:34:12.971Z,101722.63
2022-11-13T01:36:59.056Z,101720.19
2022-11-13T01:39:44.732Z,101715.66
2022-11-13T01:42:33.550Z,101730.63
2022-11-13T01:46:05.029Z,101727.63
2022-11-13T01:49:08.169Z,101728.03
2022-11-13T01:52:03.238Z,101722.00
2022-11-13T01:54:53.600Z,101721.31
2022-11-13T01:57:41.077Z,101718.69
2022-11-13T02:00:27.136Z,101716.91
2022-11-13T02:03:13.100Z,101708.09
2022-11-13T02:05:59.046Z,101720.53
2022-11-13T02:08:45.614Z,101726.38
2022-11-13T02:11:31.591Z,101719.06
2022-11-13T02:14:19.429Z,101728.84
2022-11-13T02:21:15.114Z,101722.53
2022-11-13T02:24:32.999Z,101717.22
2022-11-13T02:27:38.042Z,101713.47
2022-11-13T02:30:30.018Z,101710.81
2022-11-13T02:33:33.888Z,101711.72
2022-11-13T02:36:24.165Z,101705.81
2022-11-13T02:39:12.827Z,101703.19
2022-11-13T02:41:59.400Z,101703.97
2022-11-13T02:44:45.355Z,101694.22
2022-11-13T02:47:31.595Z,101704.28
2022-11-13T02:50:18.396Z,101703.91
2022-11-13T02:53:05.605Z,101711.22
2022-11-13T02:55:51.351Z,101713.06
2022-11-13T02:58:37.103Z,101706.59
2022-11-13T03:01:22.837Z,101710.88
2022-11-13T03:04:09.498Z,101710.97
2022-11-13T03:06:55.871Z,101713.91
2022-11-13T03:09:42.476Z,101724.84
2022-11-13T03:12:28.352Z,101724.81
2022-11-13T03:15:14.149Z,101724.50
2022-11-13T03:18:04.312Z,101728.19
2022-11-13T03:20:53.968Z,101739.78
2022-11-13T03:23:41.801Z,101742.19
2022-11-13T03:26:28.413Z,101738.44
2022-11-13T03:29:15.399Z,101739.13
2022-11-13T03:32:03.136Z,101735.03
2022-11-13T03:34:48.945Z,101754.75
2022-11-13T03:37:34.800Z,101754.09
2022-11-13T03:40:20.460Z,101751.16
2022-11-13T03:43:06.169Z,101765.38
2022-11-13T03:45:52.039Z,101748.88
2022-11-13T03:48:37.802Z,101744.56
2022-11-13T03:51:23.774Z,101752.78
2022-11-13T03:54:09.728Z,101733.50
2022-11-13T03:56:55.904Z,101742.47
2022-11-13T03:59:41.824Z,101740.88
2022-11-13T04:02:27.750Z,101745.72
2022-11-13T04:05:14.792Z,101756.41
2022-11-13T04:08:03.866Z,101744.69
2022-11-13T04:10:49.566Z,101740.50
2022-11-13T04:13:35.273Z,101746.69
2022-11-13T04:16:20.997Z,101737.72
2022-11-13T04:19:06.577Z,101733.88
2022-11-13T04:21:52.614Z,101732.41
2022-11-13T04:24:41.637Z,101735.16
2022-11-13T04:27:27.558Z,101732.66
2022-11-13T04:30:13.381Z,101737.38
2022-11-13T04:32:59.282Z,101737.56
2022-11-13T04:35:45.983Z,101734.16
2022-11-13T04:38:31.973Z,101733.63
2022-11-13T04:41:36.196Z,101726.59
2022-11-13T04:44:22.065Z,101726.59
2022-11-13T04:47:08.591Z,101731.25
2022-11-13T04:49:54.504Z,101729.63
2022-11-13T04:52:40.353Z,101739.63
2022-11-13T04:55:26.142Z,101733.50
2022-11-13T04:58:12.131Z,101728.28
2022-11-13T05:00:57.868Z,101731.13
2022-11-13T05:03:43.575Z,101724.94
2022-11-13T05:06:29.595Z,101722.38
2022-11-13T05:09:16.211Z,101723.38
2022-11-13T05:12:02.424Z,101724.22
2022-11-13T05:14:48.253Z,101732.28
2022-11-13T05:20:39.239Z,101734.03
2022-11-13T05:23:29.947Z,101725.31
2022-11-13T05:26:16.877Z,101739.50
2022-11-13T05:29:02.829Z,101744.94
2022-11-13T05:31:48.965Z,101749.50
2022-11-13T05:34:34.813Z,101742.50
2022-11-13T05:37:20.757Z,101749.50
2022-11-13T05:40:07.547Z,101752.06
2022-11-13T05:42:54.648Z,101760.66
2022-11-13T05:45:40.500Z,101759.63
2022-11-13T05:48:26.808Z,101764.06
2022-11-13T05:51:15.588Z,101764.63
2022-11-13T05:54:02.013Z,101752.22
2022-11-13T05:56:50.611Z,101752.44
2022-11-13T05:59:36.498Z,101740.06
2022-11-13T06:02:22.519Z,101738.41
2022-11-13T06:05:08.640Z,101726.75
2022-11-13T06:07:54.488Z,101732.06
2022-11-13T06:10:40.158Z,101740.88
2022-11-13T06:13:25.926Z,101751.47
2022-11-13T06:16:17.307Z,101758.19
2022-11-13T06:19:04.899Z,101768.84
2022-11-13T06:21:50.660Z,101766.25
2022-11-13T06:24:36.272Z,101767.09
2022-11-13T06:27:22.142Z,101764.63
2022-11-13T06:30:08.341Z,101777.16
2022-11-13T06:32:54.643Z,101776.00
2022-11-13T06:35:40.748Z,101774.22
2022-11-13T06:38:26.575Z,101774.38
2022-11-13T06:41:16.170Z,101784.19
2022-11-13T06:44:03.363Z,101790.44
2022-11-13T06:46:49.598Z,101791.50
2022-11-13T06:49:35.550Z,101790.56
2022-11-13T06:52:21.637Z,101784.38
2022-11-13T06:55:07.395Z,101788.66
2022-11-13T06:57:54.648Z,101798.31
2022-11-13T07:00:42.095Z,101803.59
2022-11-13T07:03:28.081Z,101804.53
2022-11-13T07:06:18.003Z,101797.41
2022-11-13T07:09:04.001Z,101807.19
2022-11-13T07:11:49.673Z,101813.28
2022-11-13T07:14:35.292Z,101809.69
2022-11-13T07:17:20.981Z,101802.41
2022-11-13T07:20:08.552Z,101813.91
2022-11-13T07:22:58.725Z,101822.00
2022-11-13T07:25:44.709Z,101811.22
2022-11-13T07:28:30.997Z,101818.25
2022-11-13T07:31:18.306Z,101824.41
2022-11-13T07:34:04.108Z,101821.56
2022-11-13T07:36:50.055Z,101833.00
2022-11-13T07:39:35.631Z,101840.06
2022-11-13T07:42:21.512Z,101846.94
2022-11-13T07:45:07.513Z,101840.50
2022-11-13T07:47:58.501Z,101833.38
2022-11-13T07:50:44.481Z,101825.16
2022-11-13T07:53:30.437Z,101832.97
2022-11-13T07:56:21.766Z,101847.84
2022-11-13T07:59:08.827Z,101839.06
2022-11-13T08:01:54.745Z,101834.66
2022-11-13T08:04:40.560Z,101833.69
2022-11-13T08:07:26.194Z,101825.66
2022-11-13T08:10:12.444Z,101821.94
2022-11-13T08:13:03.668Z,101821.78
2022-11-13T08:15:49.288Z,101814.59
2022-11-13T08:18:35.810Z,101810.78
2022-11-13T08:21:22.046Z,101807.09
2022-11-13T08:24:10.072Z,101814.09
2022-11-13T08:26:56.537Z,101810.28
2022-11-13T08:29:42.623Z,101806.53
2022-11-13T08:32:28.318Z,101825.66
2022-11-13T08:35:18.919Z,101818.03
2022-11-13T08:38:09.014Z,101807.75
2022-11-13T08:41:04.383Z,101800.38
2022-11-13T08:43:53.234Z,101797.38
2022-11-13T08:46:38.972Z,101789.88
2022-11-13T08:49:24.891Z,101800.41
2022-11-13T08:52:10.885Z,101801.09
2022-11-13T08:54:56.637Z,101786.84
2022-11-13T08:57:42.833Z,101793.47
2022-11-13T09:00:30.164Z,101792.59
2022-11-13T09:03:16.121Z,101812.88
2022-11-13T09:06:06.422Z,101803.72
2022-11-13T09:08:52.074Z,101810.91
2022-11-13T09:11:38.171Z,101821.09
2022-11-13T09:14:25.146Z,101822.91
2022-11-13T09:17:11.282Z,101829.31
2022-11-13T09:20:02.170Z,101832.16
2022-11-13T09:22:56.745Z,101839.38
2022-11-13T09:25:42.560Z,101828.91
2022-11-13T09:28:28.440Z,101841.50
2022-11-13T09:31:14.753Z,101829.06
2022-11-13T09:34:00.508Z,101831.41
2022-11-13T09:36:46.242Z,101827.63
2022-11-13T09:39:32.748Z,101825.72
2022-11-13T09:42:26.965Z,101829.19
2022-11-13T09:45:15.547Z,101831.66
2022-11-13T09:48:22.803Z,101818.94
2022-11-13T09:51:18.317Z,101814.53
2022-11-13T09:54:07.177Z,101807.44
2022-11-13T09:57:20.499Z,101798.44
2022-11-13T10:00:12.660Z,101783.22
2022-11-13T10:04:00.651Z,101776.13
2022-11-13T10:06:43.429Z,101757.97
2022-11-13T10:10:13.589Z,101747.53
2022-11-13T10:13:00.701Z,101747.28
2022-11-13T10:15:51.165Z,101754.28
2022-11-13T10:18:38.368Z,101753.41
2022-11-13T10:21:34.972Z,101746.41
2022-11-13T10:24:38.908Z,101736.44
2022-11-13T10:27:24.756Z,101747.25
2022-11-13T10:30:16.480Z,101737.28
2022-11-13T10:33:06.231Z,101744.09
2022-11-13T10:36:02.715Z,101748.84
2022-11-13T10:38:54.625Z,101750.59
2022-11-13T10:41:51.465Z,101731.13
2022-11-13T10:44:37.403Z,101732.56
2022-11-13T10:47:56.864Z,101719.72
2022-11-13T10:50:32.655Z,101729.66
2022-11-13T10:53:19.195Z,101719.38
2022-11-13T10:56:26.622Z,101722.94
2022-11-13T10:59:15.557Z,101723.09
2022-11-13T11:02:11.758Z,101721.34
2022-11-13T11:05:18.394Z,101715.97
2022-11-13T11:08:10.110Z,101705.97
2022-11-13T11:11:21.085Z,101708.53
2022-11-13T11:14:24.418Z,101702.25
2022-11-13T11:17:13.335Z,101696.81
2022-11-13T11:20:06.287Z,101692.22
2022-11-13T11:23:09.836Z,101694.81
2022-11-13T11:26:26.037Z,101695.88
2022-11-13T11:29:21.776Z,101683.06
2022-11-13T11:32:17.220Z,101694.34
2022-11-13T11:35:14.772Z,101684.59
2022-11-13T11:38:13.088Z,101678.25
2022-11-13T11:41:20.479Z,101668.72
2022-11-13T11:44:27.471Z,101663.94
2022-11-13T11:47:18.241Z,101657.81
2022-11-13T11:50:10.592Z,101654.53
2022-11-13T11:53:25.475Z,101652.78
2022-11-13T11:56:23.958Z,101644.16
2022-11-13T11:59:47.000Z,101644.03
2022-11-13T12:02:51.115Z,101641.34
2022-11-13T12:06:01.624Z,101631.72
2022-11-13T12:09:06.267Z,101634.47
2022-11-13T12:12:13.481Z,101621.22
2022-11-13T12:15:16.040Z,101625.69
2022-11-13T12:18:19.813Z,101626.69
2022-11-13T12:21:37.968Z,101621.69
2022-11-13T12:24:32.252Z,101627.50
2022-11-13T12:27:22.003Z,101617.81
2022-11-13T12:30:14.564Z,101618.59
2022-11-13T12:33:18.476Z,101610.91
2022-11-13T12:36:05.300Z,101611.72
2022-11-13T12:39:28.634Z,101596.78
2022-11-13T12:42:20.859Z,101592.47
2022-11-13T12:45:37.133Z,101594.31
2022-11-13T12:48:42.640Z,101595.03
2022-11-13T12:51:39.857Z,101579.47
2022-11-13T12:54:27.919Z,101577.16
2022-11-13T12:57:13.437Z,101580.81
2022-11-13T13:00:12.684Z,101566.72
2022-11-13T13:03:16.646Z,101564.72
2022-11-13T13:06:33.188Z,101564.03
2022-11-13T13:09:38.308Z,101559.22
2022-11-13T13:12:49.536Z,101560.06
2022-11-13T13:15:38.823Z,101557.28
2022-11-13T13:18:28.859Z,101558.94
2022-11-13T13:21:17.775Z,101555.53
2022-11-13T13:24:10.577Z,101561.53
2022-11-13T13:26:56.809Z,101563.34
2022-11-13T13:29:42.383Z,101560.91
2022-11-13T13:32:56.468Z,101554.78
2022-11-13T13:36:12.839Z,101565.38
2022-11-13T13:39:07.519Z,101561.13
2022-11-13T13:42:01.970Z,101562.88
2022-11-13T13:44:59.626Z,101559.38
2022-11-13T13:47:48.304Z,101565.59
2022-11-13T13:50:42.131Z,101550.41
2022-11-13T13:53:34.379Z,101545.13
2022-11-13T13:56:20.404Z,101547.59
2022-11-13T13:59:13.865Z,101544.22
2022-11-13T14:02:02.859Z,101545.97
2022-11-13T14:04:51.541Z,101549.63
2022-11-13T14:07:46.237Z,101545.22
2022-11-13T14:10:32.154Z,101544.34
2022-11-13T14:13:27.934Z,101555.22
2022-11-13T14:16:14.131Z,101557.09
2022-11-13T14:19:04.795Z,101551.94
2022-11-13T14:21:54.665Z,101567.16
2022-11-13T14:24:50.025Z,101547.53
2022-11-13T14:27:37.743Z,101555.78
2022-11-13T14:30:27.839Z,101563.00
2022-11-13T14:33:17.835Z,101546.19
2022-11-13T14:36:04.673Z,101558.88
2022-11-13T14:38:52.294Z,101560.13
2022-11-13T14:41:50.373Z,101569.84
2022-11-13T14:44:36.255Z,101566.31
2022-11-13T14:47:26.269Z,101566.22
2022-11-13T14:50:23.045Z,101554.81
2022-11-13T14:53:10.711Z,101554.13
2022-11-13T14:56:02.112Z,101554.19
2022-11-13T14:58:47.997Z,101557.00
2022-11-13T15:01:33.685Z,101553.50
2022-11-13T15:04:19.454Z,101561.50
2022-11-13T15:07:21.606Z,101558.66
2022-11-13T15:10:14.718Z,101551.72
2022-11-13T15:13:00.580Z,101557.88
2022-11-13T15:15:46.392Z,101552.72
2022-11-13T15:18:32.243Z,101541.13
2022-11-13T15:21:18.614Z,101549.28
2022-11-13T15:24:04.679Z,101548.25
2022-11-13T15:26:50.639Z,101558.28
2022-11-13T15:29:36.486Z,101551.94
2022-11-13T15:32:22.205Z,101564.56
2022-11-13T15:35:14.565Z,101554.00
2022-11-13T15:38:00.287Z,101556.78
2022-11-13T15:40:45.928Z,101553.22
2022-11-13T15:43:32.044Z,101557.50
2022-11-13T15:46:19.765Z,101560.19
2022-11-13T15:49:05.813Z,101558.63
2022-11-13T15:51:51.528Z,101549.63
2022-11-13T15:54:38.693Z,101554.72
2022-11-13T15:57:26.669Z,101551.41
2022-11-13T16:00:16.550Z,101552.97
2022-11-13T16:03:04.522Z,101538.22
2022-11-13T16:05:51.232Z,101539.25
2022-11-13T16:08:37.237Z,101540.25
2022-11-13T16:11:22.785Z,101536.72
2022-11-13T16:14:09.018Z,101538.56
2022-11-13T16:16:55.255Z,101540.34
2022-11-13T16:19:42.057Z,101551.09
2022-11-13T16:22:27.733Z,101538.78
2022-11-13T16:25:17.083Z,101546.00
2022-11-13T16:28:02.710Z,101546.97
2022-11-13T16:30:49.627Z,101546.97
2022-11-13T16:33:35.876Z,101548.06
2022-11-13T16:36:22.523Z,101550.84
2022-11-13T16:39:16.269Z,101550.94
2022-11-13T16:42:02.230Z,101547.50
2022-11-13T16:44:48.308Z,101561.81
2022-11-13T16:47:34.111Z,101557.59
2022-11-13T16:50:26.890Z,101554.06
2022-11-13T16:53:12.653Z,101562.94
2022-11-13T16:55:58.835Z,101560.56
2022-11-13T16:58:45.466Z,101565.91
2022-11-13T17:01:31.481Z,101561.50
2022-11-13T17:04:17.697Z,101559.72
2022-11-13T17:07:03.916Z,101577.47
2022-11-13T17:10:10.090Z,101568.56
2022-11-13T17:12:56.245Z,101570.34
2022-11-13T17:15:41.916Z,101558.00
2022-11-13T17:18:27.697Z,101561.59
2022-11-13T17:21:13.642Z,101569.63
2022-11-13T17:24:03.153Z,101562.22
2022-11-13T17:26:48.884Z,101562.25
2022-11-13T17:29:34.860Z,101560.50
2022-11-13T17:32:20.567Z,101561.47
2022-11-13T17:35:06.840Z,101571.34
2022-11-13T17:37:52.865Z,101556.25
2022-11-13T17:40:38.531Z,101565.16
2022-11-13T17:43:24.213Z,101565.19
2022-11-13T17:46:12.351Z,101568.78
2022-11-13T17:48:58.106Z,101578.69
2022-11-13T17:51:43.857Z,101574.47
2022-11-13T17:54:29.593Z,101593.31
2022-11-13T17:57:16.033Z,101575.44
2022-11-13T18:00:02.181Z,101583.72
2022-11-13T18:02:48.144Z,101577.59
2022-11-13T18:05:40.505Z,101582.16
2022-11-13T18:08:26.705Z,101586.84
2022-11-13T18:11:17.275Z,101589.41
2022-11-13T18:14:03.278Z,101594.06
2022-11-13T18:16:48.935Z,101589.94
2022-11-13T18:19:35.274Z,101587.06
2022-11-13T18:22:21.654Z,101584.50
2022-11-13T18:25:08.131Z,101582.88
2022-11-13T18:27:54.300Z,101589.97
2022-11-13T18:30:40.296Z,101582.00
2022-11-13T18:33:26.909Z,101585.53
2022-11-13T18:36:13.873Z,101591.59
2022-11-13T18:39:02.927Z,101593.50
2022-11-13T18:41:48.658Z,101584.66
2022-11-13T18:44:35.530Z,101580.00
2022-11-13T18:47:21.457Z,101586.34
2022-11-13T18:50:07.847Z,101582.06
2022-11-13T18:52:55.334Z,101582.09
2022-11-13T18:55:40.967Z,101573.91
2022-11-13T18:58:27.617Z,101593.31
2022-11-13T19:01:30.989Z,101592.50
2022-11-13T19:04:24.672Z,101589.81
2022-11-13T19:07:12.366Z,101604.88
2022-11-13T19:09:58.561Z,101594.09
2022-11-13T19:12:44.616Z,101581.63
2022-11-13T19:15:30.486Z,101583.38
2022-11-13T19:18:16.071Z,101600.19
2022-11-13T19:21:06.962Z,101604.97
2022-11-13T19:23:53.595Z,101603.22
2022-11-13T19:26:40.253Z,101605.25
2022-11-13T19:29:26.114Z,101606.97
2022-11-13T19:32:12.000Z,101598.88
2022-11-13T19:34:57.948Z,101597.06
2022-11-13T19:37:43.832Z,101596.28
2022-11-13T19:40:29.613Z,101602.56
2022-11-13T19:43:15.604Z,101614.97
2022-11-13T19:46:05.795Z,101614.09
2022-11-13T19:48:52.546Z,101615.13
2022-11-13T19:51:38.226Z,101599.06
2022-11-13T19:54:24.073Z,101612.50
2022-11-13T19:57:09.774Z,101608.94
2022-11-13T19:59:55.513Z,101601.66
2022-11-13T20:02:41.308Z,101606.22
2022-11-13T20:05:27.081Z,101612.41
2022-11-13T20:08:13.794Z,101606.22
2022-11-13T20:11:04.865Z,101605.38
2022-11-13T20:13:51.248Z,101610.72
2022-11-13T20:16:37.185Z,101601.09
2022-11-13T20:19:23.542Z,101602.22
2022-11-13T20:22:09.218Z,101598.75
2022-11-13T20:24:55.014Z,101601.41
2022-11-13T20:27:46.983Z,101600.53
2022-11-13T20:30:33.653Z,101597.78
2022-11-13T20:33:22.642Z,101594.25
2022-11-13T20:36:09.794Z,101594.28
2022-11-13T20:38:58.070Z,101604.03
2022-11-13T20:41:44.321Z,101595.09
2022-11-13T20:44:30.104Z,101597.59
2022-11-13T20:47:15.950Z,101594.16
2022-11-13T20:50:01.549Z,101597.78
2022-11-13T20:52:47.217Z,101599.56
2022-11-13T20:55:34.143Z,101589.84
2022-11-13T20:58:20.433Z,101593.44
2022-11-13T21:01:26.125Z,101588.03
2022-11-13T21:04:12.187Z,101594.34
2022-11-13T21:06:57.896Z,101599.69
2022-11-13T21:09:48.820Z,101598.53
2022-11-13T21:12:36.440Z,101602.06
2022-11-13T21:15:22.090Z,101598.78
2022-11-13T21:18:07.905Z,101596.97
2022-11-13T21:20:53.767Z,101600.69
2022-11-13T21:23:40.059Z,101611.22
2022-11-13T21:26:26.184Z,101599.53
2022-11-13T21:29:12.156Z,101591.63
2022-11-13T21:31:58.122Z,101603.09
2022-11-13T21:34:43.691Z,101605.00
2022-11-13T21:37:31.795Z,101597.88
2022-11-13T21:40:17.524Z,101597.56
2022-11-13T21:43:03.532Z,101589.88
2022-11-13T21:45:49.649Z,101594.22
2022-11-13T21:48:35.999Z,101587.81
2022-11-13T21:51:22.217Z,101575.09
2022-11-13T21:54:08.959Z,101584.38
2022-11-13T21:56:54.906Z,101596.66
2022-11-13T21:59:40.774Z,101583.34
2022-11-13T22:02:26.848Z,101590.34
2022-11-13T22:05:12.887Z,101581.63
2022-11-13T22:07:59.001Z,101582.56
2022-11-13T22:10:44.760Z,101582.59
2022-11-13T22:13:31.138Z,101590.44
2022-11-13T22:16:17.662Z,101581.88
2022-11-13T22:19:07.378Z,101582.84
2022-11-13T22:21:54.132Z,101579.41
2022-11-13T22:24:40.015Z,101584.09
2022-11-13T22:27:25.930Z,101570.75
2022-11-13T22:30:12.087Z,101581.38
2022-11-13T22:32:58.402Z,101573.47
2022-11-13T22:35:44.277Z,101569.81
2022-11-13T22:38:30.846Z,101574.34
2022-11-13T22:41:22.842Z,101571.69
2022-11-13T22:44:13.241Z,101574.50
2022-11-13T22:46:59.524Z,101573.63
2022-11-13T22:49:45.384Z,101571.00
2022-11-13T22:52:31.397Z,101578.13
2022-11-13T22:55:17.368Z,101571.66
2022-11-13T22:58:03.048Z,101575.31
2022-11-13T23:00:49.106Z,101572.63
2022-11-13T23:03:40.985Z,101574.38
2022-11-13T23:06:29.054Z,101564.41
2022-11-13T23:09:15.024Z,101567.34
2022-11-13T23:12:00.973Z,101559.47
2022-11-13T23:14:46.892Z,101564.09
2022-11-13T23:17:32.668Z,101569.44
2022-11-13T23:20:18.582Z,101558.06
2022-11-13T23:23:04.537Z,101561.72
2022-11-13T23:25:51.024Z,101548.56
2022-11-13T23:28:37.605Z,101558.34
2022-11-13T23:31:24.617Z,101552.13
2022-11-13T23:34:10.556Z,101540.56
2022-11-13T23:36:56.120Z,101536.06
2022-11-13T23:39:42.012Z,101537.91
2022-11-13T23:42:45.700Z,101532.72
2022-11-13T23:45:34.098Z,101549.59
2022-11-13T23:48:20.169Z,101544.28
2022-11-13T23:51:06.488Z,101541.59
2022-11-13T23:53:52.149Z,101538.81
2022-11-13T23:56:38.068Z,101539.75
2022-11-13T23:59:23.831Z,101537.88
